createdAt,value
2018-05-21T00:02:22.971Z,55.30
2018-05-21T00:06:26.239Z,55.90
2018-05-21T00:10:28.771Z,55.80
2018-05-21T00:14:32.059Z,55.40
2018-05-21T00:18:34.586Z,55.40
2018-05-21T00:22:37.118Z,55.20
2018-05-21T00:26:39.647Z,55.30
2018-05-21T00:30:42.151Z,55.60
2018-05-21T00:34:44.679Z,55.30
2018-05-21T00:38:47.970Z,56.20
2018-05-21T00:42:50.506Z,55.70
2018-05-21T00:46:53.035Z,54.90
2018-05-21T00:50:55.540Z,54.50
2018-05-21T00:55:10.823Z,55.80
2018-05-21T00:59:14.116Z,55.50
2018-05-21T01:03:16.639Z,55.50
2018-05-21T01:07:19.162Z,55.70
2018-05-21T01:11:21.669Z,55.20
2018-05-21T01:15:24.195Z,54.90
2018-05-21T01:19:26.717Z,55.40
2018-05-21T01:23:29.238Z,55.40
2018-05-21T01:27:32.535Z,55.40
2018-05-21T01:31:35.815Z,55.50
2018-05-21T01:35:38.350Z,55.50
2018-05-21T01:39:40.876Z,56.20
2018-05-21T01:43:43.399Z,55.70
2018-05-21T01:47:46.692Z,56.10
2018-05-21T01:51:49.967Z,56.00
2018-05-21T01:55:52.491Z,56.00
2018-05-21T01:59:55.778Z,56.00
2018-05-21T02:03:59.071Z,56.20
2018-05-21T02:08:01.601Z,56.20
2018-05-21T02:12:04.114Z,56.50
2018-05-21T02:16:06.670Z,56.80
2018-05-21T02:20:09.232Z,56.40
2018-05-21T02:24:11.743Z,56.50
2018-05-21T02:28:15.031Z,56.10
2018-05-21T02:32:17.554Z,56.00
2018-05-21T02:36:20.061Z,56.10
2018-05-21T02:40:22.593Z,56.20
2018-05-21T02:44:25.118Z,56.20
2018-05-21T02:48:27.648Z,57.10
2018-05-21T02:52:30.941Z,55.90
2018-05-21T02:56:34.215Z,57.00
2018-05-21T03:00:36.744Z,57.00
2018-05-21T03:04:39.271Z,56.70
2018-05-21T03:08:41.799Z,57.50
2018-05-21T03:12:45.092Z,55.80
2018-05-21T03:16:47.604Z,55.70
2018-05-21T03:20:50.131Z,56.60
2018-05-21T03:24:52.656Z,56.00
2018-05-21T03:28:55.950Z,55.70
2018-05-21T03:32:59.245Z,55.80
2018-05-21T03:37:01.756Z,55.70
2018-05-21T03:41:04.279Z,59.00
2018-05-21T03:45:06.811Z,56.60
2018-05-21T03:49:10.097Z,58.60
2018-05-21T03:53:13.403Z,59.00
2018-05-21T03:57:15.915Z,58.90
2018-05-21T04:01:30.367Z,57.90
2018-05-21T04:05:33.654Z,57.60
2018-05-21T04:09:36.179Z,57.60
2018-05-21T04:13:38.707Z,58.00
2018-05-21T04:17:41.212Z,59.60
2018-05-21T04:21:44.511Z,58.30
2018-05-21T04:25:47.031Z,58.40
2018-05-21T04:29:49.551Z,56.90
2018-05-21T04:33:52.083Z,56.90
2018-05-21T04:37:55.355Z,57.30
2018-05-21T04:41:57.889Z,57.20
2018-05-21T04:46:00.414Z,58.30
2018-05-21T04:50:02.939Z,57.70
2018-05-21T04:54:06.227Z,58.60
2018-05-21T04:58:09.500Z,57.40
2018-05-21T05:02:12.024Z,57.30
2018-05-21T05:06:14.547Z,57.20
2018-05-21T05:10:17.075Z,60.60
2018-05-21T05:14:19.599Z,58.10
2018-05-21T05:18:22.120Z,57.80
2018-05-21T05:22:24.646Z,57.90
2018-05-21T05:26:27.939Z,58.60
2018-05-21T05:30:31.219Z,58.80
2018-05-21T05:34:33.927Z,58.70
2018-05-21T05:38:37.219Z,58.80
2018-05-21T05:42:39.732Z,58.70
2018-05-21T05:46:43.023Z,59.10
2018-05-21T05:50:46.311Z,60.00
2018-05-21T05:54:48.843Z,59.80
2018-05-21T05:58:51.368Z,60.90
2018-05-21T06:02:53.878Z,58.90
2018-05-21T06:06:57.167Z,60.30
2018-05-21T06:10:59.694Z,60.10
2018-05-21T06:15:02.223Z,59.20
2018-05-21T06:19:04.752Z,62.70
2018-05-21T06:23:07.267Z,59.90
2018-05-21T06:27:09.791Z,59.70
2018-05-21T06:31:12.315Z,61.60
2018-05-21T06:35:14.875Z,59.50
2018-05-21T06:39:18.163Z,60.60
2018-05-21T06:43:20.671Z,61.00
2018-05-21T06:47:23.963Z,58.70
2018-05-21T06:51:27.259Z,58.80
2018-05-21T06:55:30.553Z,59.50
2018-05-21T06:59:33.075Z,59.50
2018-05-21T07:03:35.591Z,59.10
2018-05-21T07:07:38.131Z,58.90
2018-05-21T07:11:40.663Z,59.00
2018-05-21T07:15:43.194Z,59.20
2018-05-21T07:19:46.488Z,58.90
2018-05-21T07:23:48.995Z,59.20
2018-05-21T07:27:51.526Z,59.30
2018-05-21T07:31:54.061Z,59.60
2018-05-21T07:35:56.597Z,62.40
2018-05-21T07:39:59.126Z,59.40
2018-05-21T07:44:02.398Z,58.70
2018-05-21T07:48:04.944Z,58.60
2018-05-21T07:52:07.471Z,59.30
2018-05-21T07:56:09.995Z,60.30
2018-05-21T08:00:12.523Z,59.10
2018-05-21T08:04:15.047Z,60.70
2018-05-21T08:08:18.319Z,59.90
2018-05-21T08:12:20.847Z,59.90
2018-05-21T08:16:23.373Z,60.20
2018-05-21T08:20:25.895Z,59.90
2018-05-21T08:24:29.190Z,60.60
2018-05-21T08:28:31.692Z,60.60
2018-05-21T08:32:34.979Z,59.70
2018-05-21T08:36:38.270Z,59.30
2018-05-21T08:40:40.793Z,59.30
2018-05-21T08:44:43.330Z,59.60
2018-05-21T08:48:45.916Z,59.70
2018-05-21T08:52:48.387Z,59.70
2018-05-21T08:56:50.917Z,59.10
2018-05-21T09:00:54.219Z,58.60
2018-05-21T09:04:57.512Z,58.60
2018-05-21T09:09:00.784Z,58.30
2018-05-21T09:13:03.306Z,58.20
2018-05-21T09:17:06.601Z,58.20
2018-05-21T09:21:09.894Z,57.40
2018-05-21T09:25:12.415Z,57.30
2018-05-21T09:29:14.919Z,56.70
2018-05-21T09:33:17.455Z,57.00
2018-05-21T09:37:20.751Z,57.20
2018-05-21T09:41:23.282Z,57.20
2018-05-21T09:45:25.811Z,57.00
2018-05-21T09:49:28.321Z,56.80
2018-05-21T09:53:31.623Z,56.10
2018-05-21T09:57:34.921Z,56.40
2018-05-21T10:01:39.776Z,54.30
2018-05-21T10:05:42.310Z,54.40
2018-05-21T10:09:44.827Z,54.70
2018-05-21T10:13:48.119Z,54.20
2018-05-21T10:17:50.647Z,54.10
2018-05-21T10:21:53.184Z,54.00
2018-05-21T10:25:55.747Z,54.60
2018-05-21T10:29:58.235Z,51.20
2018-05-21T10:34:00.766Z,53.20
2018-05-21T10:38:04.060Z,52.90
2018-05-21T10:42:07.351Z,52.00
2018-05-21T10:46:09.876Z,51.70
2018-05-21T10:50:12.411Z,50.20
2018-05-21T10:54:14.917Z,50.80
2018-05-21T10:58:18.214Z,52.00
2018-05-21T11:02:21.507Z,50.80
2018-05-21T11:06:24.032Z,50.80
2018-05-21T11:10:26.563Z,51.40
2018-05-21T11:14:29.066Z,49.40
2018-05-21T11:18:32.360Z,48.40
2018-05-21T11:22:34.888Z,48.30
2018-05-21T11:26:37.419Z,50.10
2018-05-21T11:30:39.952Z,48.50
2018-05-21T11:34:42.464Z,49.30
2018-05-21T11:38:44.988Z,47.90
2018-05-21T11:42:48.292Z,49.30
2018-05-21T11:46:51.588Z,46.50
2018-05-21T11:50:54.114Z,46.30
2018-05-21T11:54:56.615Z,46.50
2018-05-21T11:58:59.147Z,49.60
2018-05-21T12:03:02.451Z,49.10
2018-05-21T12:07:05.745Z,46.20
2018-05-21T12:11:08.270Z,45.80
2018-05-21T12:15:10.775Z,45.60
2018-05-21T12:19:13.304Z,46.50
2018-05-21T12:23:16.591Z,45.90
2018-05-21T12:27:19.120Z,45.10
2018-05-21T12:31:21.651Z,43.10
2018-05-21T12:35:24.154Z,46.10
2018-05-21T12:39:26.675Z,45.70
2018-05-21T12:43:29.194Z,44.60
2018-05-21T12:47:31.714Z,45.70
2018-05-21T12:51:35.011Z,46.50
2018-05-21T12:55:37.526Z,46.50
2018-05-21T12:59:40.055Z,46.90
2018-05-21T13:03:42.575Z,44.20
2018-05-21T13:07:45.871Z,44.80
2018-05-21T13:11:48.399Z,45.00
2018-05-21T13:15:50.909Z,45.00
2018-05-21T13:19:53.436Z,44.60
2018-05-21T13:23:56.728Z,43.80
2018-05-21T13:27:59.250Z,43.80
2018-05-21T13:32:01.806Z,43.60
2018-05-21T13:36:05.102Z,42.30
2018-05-21T13:40:08.378Z,43.10
2018-05-21T13:44:10.903Z,42.30
2018-05-21T13:48:14.193Z,41.50
2018-05-21T13:52:17.560Z,42.50
2018-05-21T13:56:20.804Z,44.40
2018-05-21T14:00:24.075Z,42.30
2018-05-21T14:04:26.603Z,42.40
2018-05-21T14:08:29.131Z,43.10
2018-05-21T14:12:31.761Z,44.20
2018-05-21T14:16:34.203Z,40.90
2018-05-21T14:20:36.715Z,41.10
2018-05-21T14:24:39.244Z,43.20
2018-05-21T14:28:41.775Z,44.00
2018-05-21T14:32:44.302Z,40.60
2018-05-21T14:36:46.828Z,41.00
2018-05-21T14:40:49.336Z,43.00
2018-05-21T14:44:51.859Z,41.60
2018-05-21T14:48:54.387Z,40.60
2018-05-21T14:52:56.917Z,43.20
2018-05-21T14:56:59.439Z,40.50
2018-05-21T15:01:01.951Z,42.60
2018-05-21T15:05:04.484Z,40.00
2018-05-21T15:09:07.006Z,43.00
2018-05-21T15:13:09.533Z,43.00
2018-05-21T15:17:12.075Z,38.70
2018-05-21T15:21:14.579Z,40.60
2018-05-21T15:25:17.108Z,42.80
2018-05-21T15:29:19.635Z,40.80
2018-05-21T15:33:22.159Z,41.60
2018-05-21T15:37:25.459Z,40.10
2018-05-21T15:41:28.726Z,40.90
2018-05-21T15:45:31.255Z,40.90
2018-05-21T15:49:33.791Z,41.30
2018-05-21T15:53:36.323Z,39.50
2018-05-21T15:57:38.860Z,38.70
2018-05-21T16:01:41.371Z,38.30
2018-05-21T16:05:44.662Z,40.10
2018-05-21T16:09:47.183Z,40.20
2018-05-21T16:13:49.707Z,40.10
2018-05-21T16:17:52.338Z,41.40
2018-05-21T16:21:54.796Z,40.80
2018-05-21T16:25:57.306Z,42.60
2018-05-21T16:30:00.652Z,39.00
2018-05-21T16:34:03.144Z,38.90
2018-05-21T16:38:05.672Z,38.20
2018-05-21T16:42:08.976Z,39.30
2018-05-21T16:46:12.244Z,39.00
2018-05-21T16:50:14.770Z,39.10
2018-05-21T16:54:18.058Z,39.00
2018-05-21T16:58:21.346Z,40.00
2018-05-21T17:02:23.871Z,39.90
2018-05-21T17:06:26.385Z,39.10
2018-05-21T17:10:28.910Z,40.20
2018-05-21T17:14:32.203Z,40.60
2018-05-21T17:18:34.723Z,40.60
2018-05-21T17:22:37.248Z,40.90
2018-05-21T17:26:39.755Z,40.30
2018-05-21T17:30:42.283Z,41.00
2018-05-21T17:34:44.816Z,40.90
2018-05-21T17:38:47.338Z,40.60
2018-05-21T17:42:50.629Z,40.80
2018-05-21T17:46:53.907Z,41.30
2018-05-21T17:50:56.430Z,41.30
2018-05-21T17:54:58.961Z,41.90
2018-05-21T17:59:01.492Z,42.50
2018-05-21T18:03:04.813Z,42.60
2018-05-21T18:07:07.311Z,42.40
2018-05-21T18:11:09.838Z,41.90
2018-05-21T18:15:12.364Z,43.60
2018-05-21T18:19:14.890Z,43.50
2018-05-21T18:23:17.417Z,43.50
2018-05-21T18:27:19.931Z,43.80
2018-05-21T18:31:22.451Z,44.10
2018-05-21T18:35:24.989Z,43.20
2018-05-21T18:39:27.528Z,44.00
2018-05-21T18:43:30.050Z,44.20
2018-05-21T18:47:32.582Z,44.70
2018-05-21T18:51:35.094Z,44.70
2018-05-21T18:55:37.615Z,44.90
2018-05-21T18:59:40.140Z,45.10
2018-05-21T19:03:42.679Z,45.20
2018-05-21T19:07:45.207Z,45.40
2018-05-21T19:11:47.715Z,45.60
2018-05-21T19:15:50.239Z,45.80
2018-05-21T19:19:52.767Z,45.80
2018-05-21T19:23:55.296Z,46.00
2018-05-21T19:27:57.830Z,46.40
2018-05-21T19:32:00.339Z,46.40
2018-05-21T19:36:02.867Z,46.70
2018-05-21T19:40:05.396Z,46.70
2018-05-21T19:44:07.919Z,46.80
2018-05-21T19:48:11.271Z,46.90
2018-05-21T19:52:13.789Z,47.10
2018-05-21T19:56:17.075Z,47.40
2018-05-21T20:00:19.599Z,47.40
2018-05-21T20:04:22.131Z,47.60
2018-05-21T20:08:24.654Z,47.70
2018-05-21T20:12:27.165Z,47.80
2018-05-21T20:16:29.691Z,48.00
2018-05-21T20:20:39.875Z,48.00
2018-05-21T20:24:43.175Z,48.30
2018-05-21T20:28:45.707Z,48.30
2018-05-21T20:32:48.216Z,48.10
2018-05-21T20:36:50.748Z,48.30
2018-05-21T20:40:53.274Z,48.40
2018-05-21T20:44:55.790Z,48.80
2018-05-21T20:48:58.312Z,49.20
2018-05-21T20:53:00.820Z,49.00
2018-05-21T20:57:03.350Z,48.90
2018-05-21T21:01:06.647Z,49.00
2018-05-21T21:05:09.177Z,49.00
2018-05-21T21:09:12.475Z,49.20
2018-05-21T21:13:14.983Z,49.10
2018-05-21T21:17:27.509Z,49.20
2018-05-21T21:21:30.034Z,48.50
2018-05-21T21:25:33.343Z,49.80
2018-05-21T21:29:35.925Z,49.70
2018-05-21T21:33:39.218Z,50.30
2018-05-21T21:37:44.514Z,50.30
2018-05-21T21:41:47.036Z,50.00
2018-05-21T21:45:49.556Z,50.20
2018-05-21T21:49:52.083Z,50.20
2018-05-21T21:53:54.611Z,50.30
2018-05-21T21:57:57.114Z,50.60
2018-05-21T22:01:59.635Z,50.90
2018-05-21T22:06:02.164Z,51.10
2018-05-21T22:10:05.451Z,50.80
2018-05-21T22:14:07.979Z,50.80
2018-05-21T22:18:10.487Z,50.50
2018-05-21T22:22:13.011Z,50.90
2018-05-21T22:26:15.544Z,51.10
2018-05-21T22:30:18.127Z,51.70
2018-05-21T22:34:21.400Z,51.90
2018-05-21T22:38:24.676Z,52.00
2018-05-21T22:42:27.208Z,52.00
2018-05-21T22:46:29.731Z,51.70
2018-05-21T22:50:32.263Z,52.30
2018-05-21T22:54:36.716Z,52.20
2018-05-21T22:58:39.218Z,52.60
2018-05-21T23:02:41.745Z,52.80
2018-05-21T23:06:45.031Z,52.50
2018-05-21T23:10:47.557Z,52.50
2018-05-21T23:14:50.083Z,52.10
2018-05-21T23:18:52.591Z,52.60
2018-05-21T23:22:55.115Z,52.50
2018-05-21T23:26:57.647Z,53.30
2018-05-21T23:31:00.176Z,53.20
2018-05-21T23:35:02.710Z,53.50
2018-05-21T23:39:06.123Z,53.70
2018-05-21T23:43:08.642Z,54.00
2018-05-21T23:47:11.175Z,53.90
2018-05-21T23:51:13.703Z,53.30
2018-05-21T23:55:16.991Z,51.70
2018-05-21T23:59:19.511Z,51.80
